Time;durP1;ratioP1;P1;durP2;ratioP2;P2;SDS_P1;SDS_P2;PMS_P1;PMS_P2;Temp;Humidity;BMP_temperature;BMP_pressure;BME280_temperature;BME280_humidity;BME280_pressure;Samples;Min_cycle;Max_cycle;Signal;HPM_P1;HPM_P2
2021/12/11 00:02:32;;;;;;;;;;;;;;;-4.08;77.28;99189.05;2166441;82;32363;-69
2021/12/11 00:05:30;;;;;;;154.18;68.65;;;;;;;-4.09;77.16;99196.89;2108208;84;34074;-68
2021/12/11 00:08:36;;;;;;;192.62;83.87;;;;;;;-4.14;76.99;99200.86;2112989;83;30049;-69
2021/12/11 00:11:42;;;;;;;185.40;82.00;;;;;;;-4.18;76.99;99201.33;2142278;82;27898;-63
2021/12/11 00:14:49;;;;;;;214.60;93.05;;;;;;;-4.21;76.96;99194.81;2186322;81;28678;-67
2021/12/11 00:18:08;;;;;;;221.05;92.62;;;;;;;-4.24;77.10;99200.52;2188460;80;31195;-64
2021/12/11 00:21:16;;;;;;;213.47;89.35;;;;;;;-4.26;77.26;99197.89;2185597;81;34188;-71
2021/12/11 00:24:26;;;;;;;174.30;78.67;;;;;;;-4.26;77.24;99201.81;2185975;81;30141;-65
2021/12/11 00:27:29;;;;;;;195.57;82.17;;;;;;;-4.26;77.34;99204.42;2186003;81;27688;-69
2021/12/11 00:30:36;;;;;;;171.02;77.55;;;;;;;-4.26;77.45;99203.12;2181842;80;29889;-63
2021/12/11 00:33:38;;;;;;;174.55;77.85;;;;;;;-4.21;77.68;99212.23;2185846;81;31804;-69
2021/12/11 00:36:40;;;;;;;166.03;73.42;;;;;;;-4.15;77.98;99212.20;2185784;81;33020;-67
2021/12/11 00:39:53;;;;;;;147.68;64.67;;;;;;;-4.08;78.15;99215.20;2216580;80;30519;-71
2021/12/11 00:42:58;;;;;;;157.93;67.97;;;;;;;-3.97;78.32;99217.28;2224087;79;27597;-65
2021/12/11 00:45:59;;;;;;;;;;;;;;;-3.85;78.45;99227.21;2182225;80;28629;-63
2021/12/11 00:49:18;;;;;;;134.27;58.05;;;;;;;-3.75;78.49;99229.31;2178343;81;31016;-60
2021/12/11 00:52:39;;;;;;;118.65;53.80;;;;;;;-3.67;78.55;99230.98;2193491;80;34372;-60
2021/12/11 00:55:45;;;;;;;108.15;52.62;;;;;;;-3.57;78.62;99235.70;2194800;80;30477;-61
2021/12/11 00:58:51;;;;;;;115.00;51.50;;;;;;;-3.47;78.69;99241.72;2184063;80;27696;-63
2021/12/11 01:02:01;;;;;;;105.25;52.03;;;;;;;-3.40;78.69;99242.09;2194654;80;28637;-65
2021/12/11 01:05:07;;;;;;;104.72;48.65;;;;;;;-3.31;78.67;99252.03;2185698;81;31013;-66
2021/12/11 01:08:32;;;;;;;105.97;51.23;;;;;;;-3.24;78.66;99250.64;2185778;81;33052;-64
2021/12/11 01:11:48;;;;;;;110.40;51.25;;;;;;;-3.16;78.62;99244.47;2185922;80;29762;-66
2021/12/11 01:14:58;;;;;;;108.15;47.40;;;;;;;-3.09;78.55;99253.98;2185822;81;27588;-62
2021/12/11 01:21:43;;;;;;;101.75;49.85;;;;;;;-2.95;78.55;99264.31;2185881;81;32218;-70
2021/12/11 01:24:42;;;;;;;104.07;47.23;;;;;;;-2.88;78.48;99265.96;2183199;81;33237;-71
2021/12/11 01:27:49;;;;;;;103.58;49.45;;;;;;;-2.84;78.36;99266.36;2186301;81;30273;-68
2021/12/11 01:30:52;;;;;;;107.12;49.50;;;;;;;-2.82;78.37;99275.53;2186058;81;27658;-69
2021/12/11 01:33:56;;;;;;;98.90;47.98;;;;;;;-2.77;78.45;99277.63;2178962;81;28660;-64
2021/12/11 01:36:58;;;;;;;98.65;47.83;;;;;;;-2.76;78.36;99281.99;2178582;81;31845;-71
2021/12/11 01:40:03;;;;;;;103.72;48.65;;;;;;;-2.74;78.37;99293.33;2178334;81;33766;-67
2021/12/11 01:43:08;;;;;;;97.70;47.50;;;;;;;-2.69;78.46;99296.77;2183352;81;29376;-68
2021/12/11 01:46:10;;;;;;;95.75;46.15;;;;;;;-2.65;78.47;99299.80;2197419;80;32999;-69
2021/12/11 01:49:21;;;;;;;94.90;45.60;;;;;;;-2.60;78.52;99304.52;2221858;79;29028;-69
2021/12/11 01:52:33;;;;;;;92.67;45.78;;;;;;;-2.54;78.59;99306.65;2191328;80;31593;-65
2021/12/11 01:55:45;;;;;;;97.55;45.30;;;;;;;-2.50;78.61;99298.72;2188462;80;33852;-65
2021/12/11 01:58:57;;;;;;;91.50;43.13;;;;;;;-2.44;78.58;99304.32;2147717;82;30137;-69
2021/12/11 02:02:04;;;;;;;87.37;42.98;;;;;;;-2.39;78.55;99305.56;2157665;80;27739;-62
2021/12/11 02:05:07;;;;;;;87.27;44.33;;;;;;;-2.36;78.53;99305.53;2174872;80;28902;-62
2021/12/11 02:08:20;;;;;;;90.25;46.35;;;;;;;-2.31;78.61;99306.35;2201820;80;31055;-64
2021/12/11 02:11:27;;;;;;;92.80;44.18;;;;;;;-2.25;78.65;99314.15;2194692;80;33751;-68
2021/12/11 02:14:35;;;;;;;94.87;42.98;;;;;;;-2.19;78.48;99315.36;2192200;80;29354;-63
2021/12/11 02:17:45;;;;;;;87.10;42.70;;;;;;;-2.16;78.35;99320.57;2192568;80;27699;-60
2021/12/11 02:20:58;;;;;;;95.00;47.25;;;;;;;-2.11;78.33;99317.88;2188177;80;28410;-63
2021/12/11 02:24:07;;;;;;;94.65;46.53;;;;;;;-2.10;78.14;99322.70;2186710;80;31060;-63
2021/12/11 02:27:23;;;;;;;93.58;46.02;;;;;;;-2.10;78.20;99328.80;2187703;80;34003;-64
2021/12/11 02:30:48;;;;;;;87.90;44.67;;;;;;;-2.11;78.01;99324.44;2186332;80;30490;-64
2021/12/11 02:34:08;;;;;;;91.07;44.10;;;;;;;-2.14;77.93;99329.30;2182530;81;27658;-67
2021/12/11 02:37:34;;;;;;;96.47;44.85;;;;;;;-2.14;77.91;99333.66;2188523;81;28693;-65
2021/12/11 02:40:46;;;;;;;75.00;40.60;;;;;;;-2.18;77.87;99335.46;2188610;80;32184;-67
2021/12/11 02:43:55;;;;;;;79.92;41.60;;;;;;;-2.18;77.82;99336.77;2185739;81;34166;-62
2021/12/11 02:47:18;;;;;;;78.65;39.85;;;;;;;-2.21;77.69;99339.89;2181446;81;30494;-59
2021/12/11 02:50:40;;;;;;;87.22;45.28;;;;;;;-2.26;77.76;99347.83;2191183;80;27655;-62
2021/12/11 02:53:56;;;;;;;86.65;42.75;;;;;;;-2.30;77.69;99352.22;2175681;81;29958;-66
2021/12/11 02:57:03;;;;;;;94.55;43.73;;;;;;;-2.34;77.58;99351.86;2184490;81;31416;-64
2021/12/11 03:00:16;;;;;;;85.55;41.65;;;;;;;-2.38;77.59;99357.14;2184430;81;32963;-67
2021/12/11 03:03:28;;;;;;;86.57;42.58;;;;;;;-2.43;77.58;99362.45;2159353;81;30530;-60
2021/12/11 03:06:38;;;;;;;87.10;41.05;;;;;;;-2.45;77.69;99365.52;2179356;79;27987;-62
2021/12/11 03:09:38;;;;;;;90.75;42.78;;;;;;;-2.43;77.88;99363.76;2210120;80;29873;-67
2021/12/11 03:12:43;;;;;;;84.35;40.23;;;;;;;-2.41;77.91;99367.69;2205102;80;31075;-65
2021/12/11 03:15:45;;;;;;;82.30;40.10;;;;;;;-2.38;77.81;99373.77;2196958;81;32420;-66
2021/12/11 03:18:47;;;;;;;80.65;41.33;;;;;;;-2.39;77.72;99373.77;2200681;80;30475;-68
2021/12/11 03:21:52;;;;;;;157.67;71.95;;;;;;;-2.42;77.66;99379.06;2190071;81;27693;-68
2021/12/11 03:24:54;;;;;;;;;;;;;;;-2.47;77.39;99389.59;2202324;80;28684;-66
2021/12/11 03:27:58;;;;;;;115.50;55.20;;;;;;;-2.51;77.46;99395.31;2184627;80;31032;-67
2021/12/11 03:31:02;;;;;;;105.13;49.80;;;;;;;-2.57;77.31;99410.25;2182197;80;32961;-67
2021/12/11 03:34:08;;;;;;;97.20;48.15;;;;;;;-2.65;77.20;99411.64;2162361;82;30116;-63
2021/12/11 03:37:13;;;;;;;102.15;46.33;;;;;;;-2.71;77.22;99413.89;2136735;82;27627;-66
2021/12/11 03:40:16;;;;;;;101.83;47.40;;;;;;;-2.75;77.28;99422.23;2189938;80;28625;-68
2021/12/11 03:43:21;;;;;;;96.50;48.10;;;;;;;-2.77;77.44;99428.35;2185605;80;31394;-68
2021/12/11 03:46:23;;;;;;;;;;;;;;;-2.77;77.45;99434.48;2205315;80;33193;-65
2021/12/11 03:49:25;;;;;;;101.78;48.30;;;;;;;-2.77;77.56;99430.97;2202597;80;29160;-66
2021/12/11 03:52:26;;;;;;;101.78;48.83;;;;;;;-2.77;77.56;99444.97;2177158;80;28221;-68
2021/12/11 03:55:33;;;;;;;99.47;47.30;;;;;;;-2.77;77.69;99444.08;2177018;81;28461;-68
2021/12/11 03:58:37;;;;;;;91.32;45.70;;;;;;;;;;2157084;81;31106;-68
2021/12/11 04:01:43;;;;;;;90.28;45.45;;;;;;;;;;2163143;81;33614;-66
2021/12/11 04:04:52;;;;;;;94.05;46.70;;;;;;;-2.69;77.66;99449.25;2182983;81;29788;-67
2021/12/11 04:07:56;;;;;;;91.65;44.63;;;;;;;-2.65;77.81;99457.52;2183541;81;27603;-69
2021/12/11 04:10:58;;;;;;;90.53;43.30;;;;;;;-2.60;77.72;99463.14;2183813;81;29926;-69
2021/12/11 04:14:08;;;;;;;84.97;42.65;;;;;;;-2.58;77.69;99468.39;2179782;80;31871;-69
2021/12/11 04:17:12;;;;;;;86.00;39.95;;;;;;;-2.57;77.60;99468.82;2183560;80;33571;-67
2021/12/11 04:20:18;;;;;;;91.45;43.63;;;;;;;-2.57;77.46;99466.63;2186107;81;28765;-68
2021/12/11 04:23:21;;;;;;;94.42;43.98;;;;;;;-2.61;77.42;99466.64;2170012;81;27807;-68
2021/12/11 04:26:23;;;;;;;90.45;45.48;;;;;;;-2.63;77.46;99474.11;2197446;80;28748;-68
2021/12/11 04:29:25;;;;;;;88.00;44.70;;;;;;;-2.64;77.51;99470.60;2141672;82;31470;-69
2021/12/11 04:32:29;;;;;;;88.17;44.23;;;;;;;-2.65;77.46;99479.80;2152207;82;33427;-68
2021/12/11 04:35:31;;;;;;;92.30;45.08;;;;;;;-2.65;77.48;99483.73;2208753;80;29324;-68
2021/12/11 04:38:33;;;;;;;90.87;43.63;;;;;;;-2.66;77.45;99489.44;2199566;79;27776;-67
2021/12/11 04:41:50;;;;;;;91.30;45.30;;;;;;;-2.67;77.51;99489.43;2198695;80;28153;-68
2021/12/11 04:44:47;;;;;;;98.70;48.85;;;;;;;-2.64;77.58;99494.66;2211485;80;31017;-70
2021/12/11 04:47:56;;;;;;;115.37;54.38;;;;;;;-2.61;77.67;99502.04;2202357;80;33770;-67
2021/12/11 04:51:00;;;;;;;115.25;54.55;;;;;;;-2.55;77.70;99515.98;2211357;80;29101;-69
2021/12/11 05:10:28;;;;;;;93.78;45.70;;;;;;;-2.34;77.63;99531.54;2201675;80;27707;-62
2021/12/11 05:13:27;;;;;;;89.07;43.98;;;;;;;-2.31;77.80;99528.86;2182345;80;29052;-67
2021/12/11 05:16:29;;;;;;;90.22;44.00;;;;;;;-2.27;77.67;99534.09;2173704;81;31043;-68
2021/12/11 05:19:31;;;;;;;98.80;50.25;;;;;;;-2.26;77.57;99532.78;2169449;81;33406;-63
2021/12/11 05:22:32;;;;;;;111.62;56.45;;;;;;;-2.29;77.40;99529.72;2158771;81;29686;-69
2021/12/11 05:25:34;;;;;;;114.00;52.53;;;;;;;-2.32;77.29;99527.58;2139860;82;28229;-66
2021/12/11 05:28:36;;;;;;;125.70;59.95;;;;;;;-2.34;77.31;99539.41;2164637;82;29899;-66
2021/12/11 05:31:38;;;;;;;132.63;66.10;;;;;;;-2.35;77.33;99537.67;2165167;81;31197;-66
2021/12/11 05:34:40;;;;;;;127.53;61.20;;;;;;;-2.33;77.33;99542.47;2148048;82;33114;-67
2021/12/11 05:37:43;;;;;;;129.82;62.30;;;;;;;-2.34;77.24;99549.91;2164499;82;29432;-67
2021/12/11 05:40:50;;;;;;;117.28;57.20;;;;;;;-2.35;77.21;99549.47;2117373;82;28415;-66
2021/12/11 05:43:53;;;;;;;121.13;61.33;;;;;;;-2.35;77.25;99558.66;2129764;82;29699;-66
2021/12/11 05:46:56;;;;;;;114.12;59.58;;;;;;;-2.34;77.28;99562.13;2161488;82;31073;-67
2021/12/11 05:49:58;;;;;;;109.57;55.33;;;;;;;-2.33;77.28;99570.01;2139850;81;33142;-66
2021/12/11 05:53:02;;;;;;;107.65;54.15;;;;;;;-2.33;77.30;99571.74;2154699;82;30472;-65
2021/12/11 05:56:11;;;;;;;108.87;53.95;;;;;;;-2.31;77.38;99566.91;2163843;81;27621;-66
2021/12/11 05:59:16;;;;;;;108.42;52.40;;;;;;;-2.30;77.24;99570.41;2153285;81;29910;-67
2021/12/11 06:02:27;;;;;;;110.75;53.50;;;;;;;-2.34;76.97;99575.25;2128855;81;30797;-67
2021/12/11 06:05:32;;;;;;;108.85;55.95;;;;;;;-2.40;76.76;99582.73;2126705;82;33768;-67
2021/12/11 06:08:34;;;;;;;125.42;61.20;;;;;;;-2.46;76.69;99586.70;2149998;82;29136;-66
2021/12/11 06:11:37;;;;;;;122.35;62.83;;;;;;;-2.58;76.65;99584.19;2139524;82;28173;-70
2021/12/11 06:14:41;;;;;;;121.15;60.38;;;;;;;-2.69;76.61;99593.02;2192840;80;29926;-68
2021/12/11 06:17:46;;;;;;;104.87;54.80;;;;;;;-2.78;76.55;99599.19;2150159;81;31041;-69
2021/12/11 06:20:49;;;;;;;112.95;60.12;;;;;;;-2.90;76.57;99604.52;2199037;80;33768;-67
2021/12/11 06:23:51;;;;;;;114.67;57.62;;;;;;;-2.99;76.62;99607.17;2180035;80;29608;-65
2021/12/11 06:26:54;;;;;;;124.42;60.20;;;;;;;-3.09;76.58;99607.23;2131931;83;27776;-68
2021/12/11 06:29:56;;;;;;;128.93;61.45;;;;;;;-3.16;76.63;99617.75;2205681;80;29846;-65
2021/12/11 06:32:58;;;;;;;126.40;64.25;;;;;;;-3.24;76.73;99625.65;2191615;80;31458;-67
2021/12/11 06:36:13;;;;;;;134.50;67.22;;;;;;;-3.28;76.56;99629.15;2197447;80;34091;-61
2021/12/11 06:39:19;;;;;;;140.35;63.63;;;;;;;-3.34;76.58;99635.29;2189062;80;29331;-61
2021/12/11 06:42:21;;;;;;;125.58;63.80;;;;;;;-3.40;76.59;99647.97;2199864;80;28228;-59
2021/12/11 06:45:27;;;;;;;132.07;63.90;;;;;;;-3.45;76.72;99650.14;2181943;80;29600;-58
2021/12/11 06:48:28;;;;;;;132.55;63.73;;;;;;;-3.50;76.71;99652.78;2190616;80;31844;-59
2021/12/11 06:51:30;;;;;;;141.03;65.97;;;;;;;-3.55;76.56;99651.91;2200777;80;33855;-63
2021/12/11 06:54:32;;;;;;;173.17;79.65;;;;;;;-3.59;76.49;99660.22;2155597;80;29292;-65
2021/12/11 06:57:34;;;;;;;175.50;79.45;;;;;;;-3.63;76.61;99659.78;2187615;79;27660;-59
2021/12/11 07:00:39;;;;;;;155.52;72.22;;;;;;;-3.66;76.66;99666.36;2185755;80;29879;-60
2021/12/11 07:03:41;;;;;;;156.47;74.05;;;;;;;-3.70;76.69;99671.16;2183319;80;31387;-59
2021/12/11 07:06:48;;;;;;;149.85;72.22;;;;;;;-3.73;76.62;99670.74;2198139;80;34141;-59
2021/12/11 07:09:50;;;;;;;154.55;69.32;;;;;;;-3.75;76.54;99672.91;2187067;79;29342;-60
2021/12/11 07:12:52;;;;;;;155.20;69.60;;;;;;;-3.78;76.50;99684.26;2180859;80;27694;-60
2021/12/11 07:15:56;;;;;;;135.82;67.03;;;;;;;-3.79;76.51;99694.71;2163642;82;29989;-58
2021/12/11 07:18:58;;;;;;;143.00;65.97;;;;;;;-3.80;76.47;99705.63;2165895;82;31010;-60
2021/12/11 07:22:00;;;;;;;158.18;75.78;;;;;;;-3.81;76.47;99710.43;2165890;82;33791;-60
2021/12/11 07:25:07;;;;;;;205.83;102.17;;;;;;;-3.81;76.46;99711.73;2116619;82;29329;-58
2021/12/11 07:28:12;;;;;;;201.50;92.50;;;;;;;-3.80;76.52;99716.55;2165587;82;27628;-60
2021/12/11 07:31:15;;;;;;;170.57;81.70;;;;;;;-3.78;76.73;99724.83;2149006;82;28709;-59
2021/12/11 07:34:18;;;;;;;160.63;77.50;;;;;;;-3.77;76.84;99738.34;2099139;84;32067;-60
2021/12/11 07:37:20;;;;;;;146.10;73.02;;;;;;;-3.72;76.99;99746.19;2130891;82;33205;-60
2021/12/11 07:40:27;;;;;;;142.43;71.37;;;;;;;-3.64;77.15;99750.11;2119614;83;30493;-61
2021/12/11 07:43:30;;;;;;;148.95;74.00;;;;;;;-3.54;77.23;99758.38;2127416;82;27667;-58
2021/12/11 07:46:32;;;;;;;152.65;70.57;;;;;;;-3.44;77.30;99761.45;2121510;82;28829;-59
2021/12/11 07:49:36;;;;;;;152.97;74.27;;;;;;;-3.33;77.28;99765.78;2120302;83;31518;-59
2021/12/11 07:52:39;;;;;;;169.05;82.12;;;;;;;-3.23;77.33;99766.22;2120109;84;34292;-59
2021/12/11 07:55:41;;;;;;;176.90;87.92;;;;;;;-3.13;77.26;99767.94;2119784;83;30004;-61
2021/12/11 07:58:43;;;;;;;202.15;101.95;;;;;;;-3.03;77.38;99763.55;2119545;84;27649;-64
2021/12/11 08:01:48;;;;;;;202.30;101.55;;;;;;;-2.93;77.29;99770.94;2119537;83;29073;-59
2021/12/11 08:04:50;;;;;;;193.20;96.12;;;;;;;-2.81;77.56;99781.38;2135342;82;31907;-62
2021/12/11 08:07:52;;;;;;;207.93;99.67;;;;;;;-2.68;77.51;99786.14;2153280;82;34320;-59
2021/12/11 08:10:59;;;;;;;208.65;100.50;;;;;;;-2.52;77.61;99790.88;2140084;82;29367;-59
2021/12/11 08:14:02;;;;;;;200.50;97.50;;;;;;;-2.36;77.74;99795.63;2162998;80;27684;-60
2021/12/11 08:17:06;;;;;;;162.37;81.25;;;;;;;-2.20;77.79;99795.53;2194317;80;28726;-59
2021/12/11 08:20:11;;;;;;;182.50;95.60;;;;;;;-2.03;77.83;99806.80;2194745;81;32214;-65
2021/12/11 08:23:16;;;;;;;196.05;101.60;;;;;;;-1.87;77.99;99806.70;2148500;82;32964;-61
2021/12/11 08:26:21;;;;;;;200.20;105.00;;;;;;;-1.71;77.89;99810.97;2143407;83;29328;-58
2021/12/11 08:29:22;;;;;;;230.50;119.22;;;;;;;-1.56;77.89;99816.52;2145679;80;27743;-59
2021/12/11 08:32:25;;;;;;;227.00;110.72;;;;;;;-1.42;77.76;99816.88;2222103;80;29919;-58
2021/12/11 08:35:28;;;;;;;208.10;107.03;;;;;;;-1.27;77.65;99826.36;2116816;82;32123;-58
2021/12/11 08:38:30;;;;;;;231.50;120.90;;;;;;;-1.12;77.79;99830.63;2181890;80;33093;-59
2021/12/11 08:41:33;;;;;;;240.90;122.42;;;;;;;-0.97;77.62;99836.16;2185366;81;30531;-61
2021/12/11 08:44:38;;;;;;;241.73;128.30;;;;;;;-0.85;77.57;99845.26;2185821;81;27678;-58
2021/12/11 08:47:41;;;;;;;244.70;130.20;;;;;;;-0.73;77.30;99850.81;2186331;80;30471;-59
2021/12/11 08:50:47;;;;;;;266.45;137.85;;;;;;;-0.63;77.26;99848.95;2203453;80;32223;-62
2021/12/11 08:53:50;;;;;;;249.80;129.32;;;;;;;-0.50;77.25;99854.95;2155449;82;32963;-59
2021/12/11 08:56:54;;;;;;;226.52;122.58;;;;;;;-0.36;77.29;99858.75;2221641;79;30653;-59
2021/12/11 09:00:11;;;;;;;244.00;128.47;;;;;;;-0.22;77.30;99864.71;2129342;82;27785;-59
2021/12/11 09:03:37;;;;;;;227.75;122.50;;;;;;;-0.06;77.39;99872.41;2152861;82;28473;-59
2021/12/11 09:06:56;;;;;;;216.05;112.00;;;;;;;0.10;77.30;99879.22;2114499;82;32267;-61
2021/12/11 09:10:03;;;;;;;201.07;106.52;;;;;;;0.25;77.21;99884.70;2175007;81;32741;-60
2021/12/11 09:13:18;;;;;;;160.05;84.62;;;;;;;0.41;77.39;99897.69;2174881;81;29734;-61
2021/12/11 09:16:28;;;;;;;143.87;75.25;;;;;;;0.54;77.18;99903.63;2104928;83;28021;-60
2021/12/11 09:19:41;;;;;;;136.75;71.50;;;;;;;0.67;77.23;99909.13;2123473;82;28685;-60
2021/12/11 09:22:48;;;;;;;132.75;69.00;;;;;;;0.80;76.95;99903.22;2121880;83;31609;-60
2021/12/11 09:25:58;;;;;;;223.25;103.05;;;;;;;0.92;76.99;99908.75;2142793;83;32959;-60
2021/12/11 09:29:21;;;;;;;304.80;130.37;;;;;;;1.04;76.67;99917.77;2123450;83;29688;-59
2021/12/11 09:32:44;;;;;;;169.68;88.90;;;;;;;1.14;76.78;99920.27;2154693;82;27727;-60
2021/12/11 09:35:53;;;;;;;189.55;106.10;;;;;;;1.27;76.60;99918.27;2165718;82;28719;-60
2021/12/11 09:39:04;;;;;;;294.32;142.05;;;;;;;1.37;76.48;99931.75;2165528;82;31946;-61
2021/12/11 09:42:03;;;;;;;244.72;126.20;;;;;;;1.40;75.88;99929.48;2147316;82;34321;-59
2021/12/11 09:45:21;;;;;;;266.75;137.77;;;;;;;1.41;75.63;99931.23;1983337;82;28385;-59
2021/12/11 09:48:22;;;;;;;220.10;116.05;;;;;;;1.39;75.55;99936.55;1978501;89;27900;-60
2021/12/11 09:51:32;;;;;;;211.12;107.05;;;;;;;1.41;75.34;99941.33;1978629;89;29158;-60
2021/12/11 09:54:35;;;;;;;177.65;96.42;;;;;;;1.38;74.86;99948.44;1993115;88;31251;-59
2021/12/11 09:57:42;;;;;;;195.50;104.87;;;;;;;1.33;75.03;99959.08;2009691;88;34101;-62
2021/12/11 10:00:55;;;;;;;196.50;104.85;;;;;;;1.36;75.27;99965.63;2010398;88;29521;-59
2021/12/11 10:04:09;;;;;;;170.60;95.07;;;;;;;1.41;75.60;99970.36;2010781;88;27911;-61
2021/12/11 10:07:28;;;;;;;151.68;84.65;;;;;;;1.50;75.51;99978.13;2000371;87;28790;-61
2021/12/11 10:10:29;;;;;;;150.78;75.60;;;;;;;1.60;75.64;99980.59;1978637;88;32445;-61
2021/12/11 10:13:34;;;;;;;142.55;79.32;;;;;;;1.68;75.35;99987.95;1980242;88;33891;-61
2021/12/11 10:16:39;;;;;;;;;;;;;;;1.74;75.04;99995.73;2014064;88;29517;-59
2021/12/11 10:19:44;;;;;;;143.17;77.58;;;;;;;1.77;74.84;99991.72;2000949;88;27767;-60
2021/12/11 10:22:47;;;;;;;145.17;77.35;;;;;;;1.80;74.93;99999.59;2031545;86;29542;-60
2021/12/11 10:25:52;;;;;;;147.45;83.40;;;;;;;1.84;74.90;100002.19;2041646;87;32243;-60
2021/12/11 10:28:58;;;;;;;157.03;85.87;;;;;;;1.94;74.97;100010.34;2063513;86;32972;-60
2021/12/11 10:32:05;;;;;;;150.25;84.87;;;;;;;2.01;74.85;100005.81;2022723;88;31422;-60
2021/12/11 10:35:13;;;;;;;162.00;86.42;;;;;;;2.10;74.72;100005.19;2026457;87;27751;-60
2021/12/11 10:38:16;;;;;;;167.15;92.92;;;;;;;2.18;74.83;100009.00;2026485;87;29442;-59
2021/12/11 10:41:19;;;;;;;170.72;94.72;;;;;;;2.30;74.98;100009.21;2024835;87;31396;-60
2021/12/11 10:44:32;;;;;;;174.95;93.30;;;;;;;2.37;74.65;100021.85;2051427;86;34231;-59
2021/12/11 10:47:39;;;;;;;169.50;96.15;;;;;;;2.41;74.56;100016.92;2069985;86;29545;-64
2021/12/11 10:51:04;;;;;;;200.85;108.80;;;;;;;2.46;74.26;100015.07;2003677;88;27989;-70
2021/12/11 10:54:08;;;;;;;210.23;114.82;;;;;;;2.51;74.23;100016.28;1970206;89;30057;-59
2021/12/11 10:57:11;;;;;;;211.47;111.37;;;;;;;2.58;74.42;100014.80;1970325;90;31860;-59
2021/12/11 11:00:19;;;;;;;200.68;111.12;;;;;;;2.68;74.27;100017.23;2025120;87;34415;-59
2021/12/11 11:03:27;;;;;;;188.15;102.62;;;;;;;2.73;74.16;100019.34;2034858;86;30211;-59
2021/12/11 11:06:29;;;;;;;187.00;105.07;;;;;;;2.82;74.25;100023.55;2063086;85;27617;-62
2021/12/11 11:09:32;;;;;;;218.30;118.95;;;;;;;2.90;74.17;100017.63;2042365;87;29468;-61
2021/12/11 11:12:34;;;;;;;218.82;120.37;;;;;;;2.95;74.05;100025.02;2035421;87;31870;-59
2021/12/11 11:15:36;;;;;;;203.47;112.80;;;;;;;3.02;74.05;100021.77;2035504;87;33300;-60
2021/12/11 11:18:38;;;;;;;206.90;118.42;;;;;;;3.07;73.89;100029.16;2035134;86;30192;-60
2021/12/11 11:21:45;;;;;;;165.97;93.87;;;;;;;3.10;73.94;100035.71;2035479;86;27551;-69
2021/12/11 11:25:01;;;;;;;190.50;102.27;;;;;;;3.13;73.81;100040.94;1982287;89;29577;-59
2021/12/11 11:28:07;;;;;;;202.40;99.30;;;;;;;3.15;73.79;100047.04;1982075;89;32252;-57
2021/12/11 11:31:16;;;;;;;183.37;88.82;;;;;;;3.18;73.75;100048.77;2002420;88;33178;-60
2021/12/11 11:34:20;;;;;;;132.82;75.30;;;;;;;3.26;73.77;100065.33;2014286;88;29401;-58
2021/12/11 11:37:22;;;;;;;156.75;85.50;;;;;;;3.33;73.49;100075.31;2013884;88;27915;-58
2021/12/11 11:40:34;;;;;;;160.28;91.92;;;;;;;3.37;73.43;100077.46;1951243;91;29890;-57
2021/12/11 11:43:37;;;;;;;192.70;106.10;;;;;;;3.39;73.39;100082.27;1949428;91;31857;-58
2021/12/11 11:46:40;;;;;;;177.38;100.62;;;;;;;3.38;73.17;100072.12;1942952;91;32999;-56
2021/12/11 11:49:42;;;;;;;174.30;97.30;;;;;;;3.38;73.12;100083.18;1964349;90;30780;-59
2021/12/11 11:52:44;;;;;;;163.47;94.35;;;;;;;3.38;73.01;100094.63;1977104;89;27709;-63
2021/12/11 11:55:49;;;;;;;164.55;90.47;;;;;;;3.34;72.77;100094.27;1965882;90;29909;-59
2021/12/11 11:58:52;;;;;;;151.18;84.32;;;;;;;3.31;72.72;100108.92;1989578;88;31880;-58
2021/12/11 12:02:03;;;;;;;153.65;89.47;;;;;;;3.27;72.59;100116.52;1965422;89;34133;-57
2021/12/11 12:05:08;;;;;;;145.43;83.12;;;;;;;3.23;72.63;100124.95;1972845;89;29397;-61
2021/12/11 12:08:13;;;;;;;146.47;80.50;;;;;;;3.17;72.57;100129.08;1992838;88;27798;-54
2021/12/11 12:11:16;;;;;;;158.25;83.50;;;;;;;3.14;72.67;100124.73;1960417;89;28683;-59
2021/12/11 12:14:23;;;;;;;146.68;80.10;;;;;;;3.10;72.55;100132.75;1967530;89;31920;-61
2021/12/11 12:17:28;;;;;;;137.07;76.05;;;;;;;3.03;72.57;100128.94;1984201;89;33480;-58
2021/12/11 12:20:30;;;;;;;123.67;74.47;;;;;;;3.00;72.48;100132.08;1995207;89;29333;-58
2021/12/11 12:23:34;;;;;;;119.20;70.83;;;;;;;2.96;72.52;100133.92;1994976;89;27757;-55
2021/12/11 12:26:37;;;;;;;119.53;71.85;;;;;;;2.92;72.51;100134.02;1999504;85;29565;-61
2021/12/11 12:29:40;;;;;;;124.00;71.20;;;;;;;2.91;72.51;100138.89;2073550;85;31912;-60
2021/12/11 12:32:42;;;;;;;145.82;89.65;;;;;;;2.89;72.54;100144.23;2047523;87;33683;-61
2021/12/11 12:35:46;;;;;;;172.93;105.50;;;;;;;2.88;72.64;100154.39;2047152;87;30651;-61
2021/12/11 12:38:49;;;;;;;150.50;89.80;;;;;;;2.86;72.59;100161.48;2056114;85;27716;-53
2021/12/11 12:42:04;;;;;;;135.97;84.45;;;;;;;2.83;72.56;100166.36;2044567;85;29209;-59
2021/12/11 12:45:20;;;;;;;117.90;70.25;;;;;;;2.82;72.44;100174.34;2042699;85;31159;-61
2021/12/11 12:48:23;;;;;;;120.85;69.12;;;;;;;2.80;72.46;100173.50;2033422;87;34196;-64
2021/12/11 12:51:27;;;;;;;122.35;67.50;;;;;;;2.76;72.57;100176.66;2036842;87;54396;-66
2021/12/11 12:54:31;;;;;;;120.25;68.17;;;;;;;2.76;72.62;100178.42;2043511;87;28365;-65
2021/12/11 12:57:39;;;;;;;146.77;80.70;;;;;;;2.73;72.59;100182.87;2043432;87;29130;-59
2021/12/11 13:00:51;;;;;;;145.30;85.20;;;;;;;2.70;72.38;100178.98;2036071;87;31105;-63
2021/12/11 13:04:01;;;;;;;146.98;89.83;;;;;;;2.66;72.33;100183.91;2042654;87;32963;-59
2021/12/11 13:07:09;;;;;;;137.68;75.40;;;;;;;2.60;72.32;100189.30;2044728;87;30421;-65
2021/12/11 13:10:17;;;;;;;138.70;75.52;;;;;;;2.55;72.13;100191.17;2045323;87;27891;-66
2021/12/11 13:13:23;;;;;;;174.32;93.80;;;;;;;2.52;72.35;100200.48;2042206;85;28531;-64
2021/12/11 13:16:30;;;;;;;140.45;79.40;;;;;;;2.49;72.51;100194.78;2042450;87;32384;-63
2021/12/11 13:19:37;;;;;;;143.70;80.12;;;;;;;2.49;72.58;100200.53;2043466;87;32986;-69
2021/12/11 13:22:43;;;;;;;241.50;106.87;;;;;;;2.49;72.58;100200.53;2041617;87;29082;-61
2021/12/11 13:25:57;;;;;;;215.55;105.07;;;;;;;2.46;72.48;100200.14;2043894;87;27679;-58
2021/12/11 13:29:02;;;;;;;194.62;98.27;;;;;;;2.43;72.52;100205.02;2043531;87;29524;-65
2021/12/11 13:32:14;;;;;;;132.27;73.07;;;;;;;2.42;72.58;100208.56;2033003;87;32047;-58
2021/12/11 13:35:21;;;;;;;135.70;72.67;;;;;;;2.41;72.54;100212.56;2043165;87;33051;-64
2021/12/11 13:38:26;;;;;;;130.20;74.35;;;;;;;2.38;72.48;100213.94;1979992;89;29389;-76
2021/12/11 13:41:33;;;;;;;128.30;72.37;;;;;;;2.34;72.52;100215.77;2000159;88;27711;-61
2021/12/11 13:44:40;;;;;;;121.65;69.12;;;;;;;2.29;72.42;100224.22;1982266;87;28927;-61
2021/12/11 13:47:44;;;;;;;128.85;74.30;;;;;;;2.26;72.53;100233.52;2007932;88;31039;-62
2021/12/11 13:50:50;;;;;;;123.42;68.78;;;;;;;2.25;72.56;100233.08;2008109;88;33396;-62
2021/12/11 13:53:55;;;;;;;119.37;68.92;;;;;;;2.21;72.49;100226.98;2008264;88;30110;-63
2021/12/11 13:57:02;;;;;;;132.82;70.65;;;;;;;2.18;72.50;100231.00;2008325;88;27865;-58
2021/12/11 14:00:11;;;;;;;127.40;68.85;;;;;;;2.13;72.53;100233.72;2014326;87;28769;-67
2021/12/11 14:03:17;;;;;;;122.75;67.42;;;;;;;2.10;72.43;100244.80;2062429;85;31119;-58
2021/12/11 14:06:21;;;;;;;126.00;70.00;;;;;;;2.06;72.59;100252.34;2073741;85;33565;-57
2021/12/11 14:09:23;;;;;;;124.47;67.90;;;;;;;2.02;72.61;100253.27;2074650;85;29340;-67
2021/12/11 14:12:29;;;;;;;183.25;97.80;;;;;;;1.99;72.62;100256.84;2074697;85;27658;-65
2021/12/11 14:15:30;;;;;;;202.20;104.53;;;;;;;1.95;72.66;100267.02;2074596;85;29748;-68
2021/12/11 14:18:35;;;;;;;179.63;96.25;;;;;;;1.92;72.78;100277.20;2074374;85;27642;-70
2021/12/11 14:21:38;;;;;;;145.57;79.40;;;;;;;1.90;72.72;100282.09;2074509;85;33802;-64
2021/12/11 14:24:42;;;;;;;177.15;88.27;;;;;;;1.85;72.79;100291.37;2074605;85;30671;-70
2021/12/11 14:27:48;;;;;;;152.50;79.37;;;;;;;1.82;72.80;100296.73;2074937;85;27789;-68
2021/12/11 14:30:59;;;;;;;160.35;89.72;;;;;;;1.77;72.82;100299.87;2056447;85;29514;-69